Finales Départementales des Jeunes - J2 - PAS-DE-CALAIS

Compétition Départementale

LENS

Le Dimanche 29 Mai 2011

Bassin de 50m

100 Nage Libre Messieurs

Séries

Nom Année Temps Pts Club Pays
1 RENUY Floryan 1998 1:07:56 734 SN LENS FRA
2 VANHOUTTE Victor 1998 1:09:10 692 SC BOULOGNE-SUR-MER FRA
3 LOUVET Antoine 1998 1:09:36 685 CALAIS NATATION FRA
4 GOSSELIN Antony 1999 1:09:68 677 US MONTREUIL-SUR-MER FRA
5 BOILEAU Achille 1998 1:09:86 672 DAUPHINS ST-OMER FRA
6 LENOIR Alexandre 1998 1:10:16 664 USO BRUAY-LA-BUISSIERE FRA
7 MATTON Léo 1998 1:10:25 662 CALAIS NATATION FRA
8 LAMY Hugo 1999 1:11:02 642 SN LENS FRA
9 KLAUS Thibault 1998 1:11:56 628 USO BRUAY-LA-BUISSIERE FRA
10 GAILLARD Theo 1999 1:12:01 617 AUCHEL NATATION FRA
11 DUHAMEL Gauthier 1998 1:13:00 592 AUCHEL NATATION FRA
12 DELMOTTE Loic 1999 1:13:06 590 SC BOULOGNE-SUR-MER FRA
13 HANQUIEZ Theo 1998 1:13:06 590 SC BOULOGNE-SUR-MER FRA
14 JAYET Axel 1998 1:13:63 577 STADE BÉTHUNE PÉLICAN CLUB FRA
15 DUFOUR Victor 1999 1:13:74 574 AUCHEL NATATION FRA
16 FROISSART Aurélien 1998 1:14:30 560 US MONTREUIL-SUR-MER FRA
17 CHARLEMAGNE Leo 1998 1:15:27 537 ASL CANETONS LILLERS FRA
18 WASSELIN Théo 1998 1:15:55 531 DAUPHINS ST-OMER FRA
19 WATEL Baptiste 1998 1:15:83 524 AUCHEL NATATION FRA
20 JAYET Zakari 2000 1:15:88 523 STADE BÉTHUNE PÉLICAN CLUB FRA
21 BECQUET Vianney 1999 1:16:44 510 US MONTREUIL-SUR-MER FRA
22 CLAUDEL Valentin 1999 1:16:70 504 CALAIS NATATION FRA
23 BUQUET Mathis 2000 1:16:80 502 SN HARNES FRA
24 CORNU Louis 2000 1:16:83 501 BERCK NATATION FRA
25 DEHARTE Leopold 1998 1:17:44 488 CALAIS NATATION FRA
26 MRUGALSKI Arthur 1998 1:17:64 483 RACING CLUB ARRAS FRA
27 WINOCK Hugo 2000 1:18:20 471 DAUPHINS ST-OMER FRA
28 TROLLÉ Pierre 2000 1:19:51 442 US MONTREUIL-SUR-MER FRA
29 LAMON Maty 1999 1:19:86 435 CN COURRIÈRES FRA
30 LAMPIN Leo 1998 1:19:98 432 SN LENS FRA
31 BARON Axel 1998 1:20:45 422 CALAIS NATATION FRA
32 LEROUX Esteban 2000 1:20:60 419 SC BOULOGNE-SUR-MER FRA
33 LENOIR Antoine 2000 1:20:96 412 USO BRUAY-LA-BUISSIERE FRA
34 DELPLANQUE David 2000 1:21:36 404 RACING CLUB ARRAS FRA
35 DEWILDE Colin 2000 1:21:49 401 CN COURRIÈRES FRA
36 DELETTRE Antoine 2000 1:22:00 391 AUCHEL NATATION FRA
37 DESBONNETS Simon 2000 1:22:31 385 US MONTREUIL-SUR-MER FRA
38 MASSON Maxime 1998 1:22:41 383 DAUPHINS ST-OMER FRA
39 FONTAINE Rodrigue 1999 1:22:74 376 CN DIVION FRA
40 ABACHIN Gregoire 1998 1:23:21 367 CALAIS NATATION FRA
41 PLAHIERS Nicolas 2000 1:23:30 365 SN LENS FRA
42 MATUSZAK Leo 2001 1:23:52 361 STADE BÉTHUNE PÉLICAN CLUB FRA
43 SENECHAL Théo 2000 1:24:48 343 SN HARNES FRA
44 MILLE Thomas 2001 1:24:71 338 CALAIS NATATION FRA
45 DESFONTAINES Bastien 2001 1:25:88 317 AUCHEL NATATION FRA
46 DELIE Martin 2001 1:26:01 315 SC BOULOGNE-SUR-MER FRA
47 GONTIER Adrien 2000 1:26:10 313 CALAIS NATATION FRA
48 THULLIER Gaëtan 2001 1:26:10 313 STADE BÉTHUNE PÉLICAN CLUB FRA
49 LEQUEUX Antonin 2001 1:26:76 301 US MONTREUIL-SUR-MER FRA
50 BUFFAUT Adam 2000 1:27:20 294 SN LENS FRA
51 BERNARD Erwin 2000 1:27:76 284 SN HARNES FRA
52 SIMON Balthazar 2001 1:28:05 279 SC BOULOGNE-SUR-MER FRA
53 HUNET Marvin 2001 1:28:30 275 SN LENS FRA
54 FLEJSZAR Clement 2001 1:28:84 266 SN LENS FRA
55 VILLAYES Julien 2000 1:28:89 265 SN LENS FRA
56 FIEF Tristan 2001 1:29:22 260 ENC ACHICOURT FRA
57 RENAULT Clement 2000 1:29:22 260 CALAIS NATATION FRA
58 WATEL Thibaut 2001 1:29:70 252 USO BRUAY-LA-BUISSIERE FRA
59 RODRIGUEZ Stéphane 2001 1:30:54 238 US MONTREUIL-SUR-MER FRA
60 LHERBIER Hugo 2000 1:33:75 191 SN LENS FRA
61 PROBST Théo 2000 1:33:78 190 CALAIS NATATION FRA
62 COPPIN Baptiste 2001 1:33:98 188 CALAIS NATATION FRA
63 MAGNIER Arthur 2001 1:34:67 178 DAUPHINS ST-OMER FRA
64 LELEU Baptiste 2001 1:35:21 171 CALAIS NATATION FRA
65 DARRAS Edouard 2000 1:35:58 166 CALAIS NATATION FRA
66 SAUDEMONT Felix 2001 1:35:76 164 ENC ACHICOURT FRA
67 RENAULT Martin 2001 1:36:60 153 CALAIS NATATION FRA
68 LOUVET Loïc 2001 1:36:86 150 CALAIS NATATION FRA
69 COCQUERELLE Antoine 2000 1:38:97 125 SN HARNES FRA
70 CONSTANT Jules 2001 1:39:44 119 DAUPHINS ST-OMER FRA
71 MAY Thibault 2001 1:40:43 109 DAUPHINS ST-OMER FRA
72 LOOTEN Cyprien 2001 1:40:60 107 DAUPHINS ST-OMER FRA
73 HEMBERT Lucas 2001 1:51:51 23 CALAIS NATATION FRA
RACING CLUB ARRAS